createdAt,value
2019-05-23T00:01:34.288Z,11.42
2019-05-23T00:04:07.728Z,11.30
2019-05-23T00:06:37.805Z,11.34
2019-05-23T00:09:06.915Z,11.38
2019-05-23T00:11:44.963Z,11.20
2019-05-23T00:14:32.707Z,11.45
2019-05-23T00:17:02.352Z,11.40
2019-05-23T00:19:32.791Z,11.31
2019-05-23T00:22:01.689Z,11.20
2019-05-23T00:24:30.908Z,11.24
2019-05-23T00:26:59.981Z,11.29
2019-05-23T00:29:29.317Z,11.23
2019-05-23T00:32:05.349Z,11.07
2019-05-23T00:34:35.320Z,10.93
2019-05-23T00:37:04.839Z,10.90
2019-05-23T00:39:35.134Z,10.86
2019-05-23T00:42:05.077Z,11.20
2019-05-23T00:44:34.327Z,11.08
2019-05-23T00:47:02.947Z,10.99
2019-05-23T00:49:32.233Z,10.98
2019-05-23T00:52:01.427Z,10.95
2019-05-23T00:54:30.458Z,10.95
2019-05-23T00:56:59.444Z,10.91
2019-05-23T00:59:28.148Z,10.93
2019-05-23T01:01:57.211Z,10.91
2019-05-23T01:04:26.564Z,10.96
2019-05-23T01:06:56.800Z,10.98
2019-05-23T01:09:27.437Z,10.96
2019-05-23T01:11:56.099Z,10.90
2019-05-23T01:14:25.203Z,10.93
2019-05-23T01:16:54.665Z,11.36
2019-05-23T01:19:24.362Z,11.30
2019-05-23T01:22:04.012Z,11.18
2019-05-23T01:24:34.215Z,11.09
2019-05-23T01:27:02.909Z,10.87
2019-05-23T01:29:37.667Z,10.86
2019-05-23T01:32:05.115Z,10.87
2019-05-23T01:34:34.310Z,10.73
2019-05-23T01:37:04.214Z,10.76
2019-05-23T01:39:33.805Z,10.76
2019-05-23T01:42:02.817Z,10.80
2019-05-23T01:44:32.258Z,10.78
2019-05-23T01:47:00.935Z,10.78
2019-05-23T01:49:30.604Z,10.83
2019-05-23T01:51:59.705Z,10.72
2019-05-23T01:54:28.782Z,10.67
2019-05-23T01:56:57.455Z,10.72
2019-05-23T01:59:26.451Z,10.70
2019-05-23T02:01:55.146Z,10.69
2019-05-23T02:04:23.779Z,10.92
2019-05-23T02:06:52.872Z,10.65
2019-05-23T02:09:22.342Z,10.55
2019-05-23T02:11:51.734Z,10.59
2019-05-23T02:14:20.341Z,10.89
2019-05-23T02:16:49.650Z,10.95
2019-05-23T02:19:19.743Z,10.79
2019-05-23T02:21:49.293Z,10.63
2019-05-23T02:24:18.760Z,10.66
2019-05-23T02:26:47.375Z,10.68
2019-05-23T02:29:16.751Z,10.69
2019-05-23T02:31:45.378Z,10.72
2019-05-23T02:34:14.564Z,10.62
2019-05-23T02:36:44.414Z,10.63
2019-05-23T02:39:23.498Z,10.64
2019-05-23T02:42:09.005Z,10.57
2019-05-23T02:44:39.187Z,10.63
2019-05-23T02:47:21.753Z,10.63
2019-05-23T02:49:51.308Z,10.60
2019-05-23T02:52:28.906Z,10.56
2019-05-23T02:54:57.972Z,10.66
2019-05-23T02:57:28.150Z,10.71
2019-05-23T02:59:59.853Z,10.78
2019-05-23T03:02:36.114Z,10.70
2019-05-23T03:05:07.335Z,10.60
2019-05-23T03:07:36.442Z,10.73
2019-05-23T03:10:09.790Z,10.59
2019-05-23T03:12:39.822Z,10.62
2019-05-23T03:15:10.963Z,10.69
2019-05-23T03:17:41.681Z,10.60
2019-05-23T03:20:11.532Z,10.59
2019-05-23T03:22:49.235Z,10.57
2019-05-23T03:25:37.098Z,10.57
2019-05-23T03:28:09.851Z,10.67
2019-05-23T03:30:40.150Z,10.58
2019-05-23T03:33:10.787Z,10.47
2019-05-23T03:35:41.143Z,10.56
2019-05-23T03:38:10.789Z,10.63
2019-05-23T03:40:40.311Z,10.53
2019-05-23T03:43:09.372Z,10.55
2019-05-23T03:45:40.358Z,10.51
2019-05-23T03:48:09.235Z,10.57
2019-05-23T03:50:39.615Z,10.52
2019-05-23T03:53:08.347Z,10.50
2019-05-23T03:55:37.053Z,10.51
2019-05-23T03:58:06.245Z,10.44
2019-05-23T04:00:37.250Z,10.40
2019-05-23T04:03:06.071Z,10.45
2019-05-23T04:05:35.152Z,10.55
2019-05-23T04:08:04.763Z,10.59
2019-05-23T04:10:33.663Z,10.54
2019-05-23T04:13:02.447Z,10.51
2019-05-23T04:15:31.091Z,10.51
2019-05-23T04:17:59.785Z,10.54
2019-05-23T04:20:28.398Z,10.57
2019-05-23T04:22:57.670Z,10.66
2019-05-23T04:25:27.077Z,10.82
2019-05-23T04:27:57.069Z,10.82
2019-05-23T04:30:25.736Z,10.69
2019-05-23T04:32:54.385Z,10.71
2019-05-23T04:35:23.057Z,10.90
2019-05-23T04:37:51.730Z,10.76
2019-05-23T04:40:20.770Z,10.70
2019-05-23T04:42:49.408Z,10.62
2019-05-23T04:45:18.073Z,10.76
2019-05-23T04:47:47.810Z,10.86
2019-05-23T04:50:17.421Z,10.86
2019-05-23T04:52:46.201Z,10.86
2019-05-23T04:55:15.629Z,10.97
2019-05-23T04:57:45.616Z,11.02
2019-05-23T05:00:20.845Z,11.04
2019-05-23T05:02:49.828Z,11.08
2019-05-23T05:05:19.212Z,11.18
2019-05-23T05:07:48.055Z,11.23
2019-05-23T05:10:19.955Z,11.27
2019-05-23T05:12:48.813Z,11.59
2019-05-23T05:15:17.625Z,11.59
2019-05-23T05:17:48.377Z,11.47
2019-05-23T05:20:17.503Z,11.45
2019-05-23T05:22:46.319Z,11.50
2019-05-23T05:25:15.977Z,11.44
2019-05-23T05:27:45.034Z,11.47
2019-05-23T05:30:13.902Z,11.42
2019-05-23T05:32:45.216Z,11.48
2019-05-23T05:35:14.465Z,11.56
2019-05-23T05:37:43.630Z,11.71
2019-05-23T05:40:13.211Z,11.78
2019-05-23T05:42:41.992Z,11.97
2019-05-23T05:45:11.690Z,12.00
2019-05-23T05:47:40.746Z,11.98
2019-05-23T05:50:11.041Z,12.17
2019-05-23T05:52:40.363Z,12.20
2019-05-23T05:55:09.849Z,12.32
2019-05-23T05:57:38.479Z,12.25
2019-05-23T06:00:12.963Z,12.22
2019-05-23T06:02:42.188Z,12.64
2019-05-23T06:05:12.543Z,12.63
2019-05-23T06:07:45.241Z,12.93
2019-05-23T06:10:15.867Z,12.81
2019-05-23T06:12:44.562Z,12.66
2019-05-23T06:15:13.296Z,12.80
2019-05-23T06:17:42.946Z,13.13
2019-05-23T06:20:11.667Z,12.93
2019-05-23T06:22:40.971Z,13.24
2019-05-23T06:25:10.399Z,13.14
2019-05-23T06:27:40.617Z,12.88
2019-05-23T06:30:12.582Z,13.07
2019-05-23T06:32:41.379Z,13.39
2019-05-23T06:35:10.456Z,13.15
2019-05-23T06:37:40.007Z,13.17
2019-05-23T06:40:11.939Z,13.10
2019-05-23T06:42:40.566Z,12.97
2019-05-23T06:45:11.434Z,13.10
2019-05-23T06:47:40.646Z,13.29
2019-05-23T06:50:15.992Z,13.51
2019-05-23T06:52:44.834Z,13.86
2019-05-23T06:55:13.845Z,13.80
2019-05-23T06:57:42.485Z,13.60
2019-05-23T07:00:13.477Z,13.55
2019-05-23T07:02:42.817Z,13.38
2019-05-23T07:05:11.717Z,13.49
2019-05-23T07:07:41.488Z,13.49
2019-05-23T07:10:10.701Z,13.58
2019-05-23T07:12:39.314Z,13.65
2019-05-23T07:15:10.164Z,13.76
2019-05-23T07:17:39.323Z,13.66
2019-05-23T07:20:09.136Z,13.62
2019-05-23T07:22:37.888Z,13.62
2019-05-23T07:25:09.945Z,13.59
2019-05-23T07:27:38.823Z,13.64
2019-05-23T07:30:14.182Z,13.80
2019-05-23T07:32:42.838Z,13.70
2019-05-23T07:35:12.989Z,13.74
2019-05-23T07:37:41.690Z,13.85
2019-05-23T07:40:10.779Z,13.95
2019-05-23T07:42:39.908Z,14.01
2019-05-23T07:45:10.300Z,14.10
2019-05-23T07:47:40.238Z,14.20
2019-05-23T07:50:09.428Z,14.17
2019-05-23T07:52:40.330Z,14.14
2019-05-23T07:55:16.802Z,14.28
2019-05-23T07:57:45.631Z,14.28
2019-05-23T08:00:25.312Z,14.58
2019-05-23T08:02:54.624Z,14.38
2019-05-23T08:05:23.933Z,14.44
2019-05-23T08:07:53.509Z,14.36
2019-05-23T08:10:32.991Z,14.44
2019-05-23T08:12:53.782Z,14.36
2019-05-23T08:15:22.500Z,14.58
2019-05-23T08:17:52.559Z,15.19
2019-05-23T08:20:21.688Z,14.79
2019-05-23T08:22:50.387Z,14.72
2019-05-23T08:25:19.110Z,15.19
2019-05-23T08:27:48.362Z,15.04
2019-05-23T08:30:19.327Z,15.10
2019-05-23T08:32:48.604Z,15.10
2019-05-23T08:35:18.406Z,15.16
2019-05-23T08:37:47.346Z,15.03
2019-05-23T08:40:18.139Z,15.10
2019-05-23T08:42:47.875Z,14.98
2019-05-23T08:45:17.247Z,15.79
2019-05-23T08:47:45.945Z,15.74
2019-05-23T08:50:15.268Z,15.88
2019-05-23T08:52:43.975Z,15.85
2019-05-23T08:55:21.944Z,15.44
2019-05-23T08:57:52.334Z,15.93
2019-05-23T09:00:22.903Z,16.05
2019-05-23T09:02:53.545Z,15.71
2019-05-23T09:05:23.797Z,15.84
2019-05-23T09:07:52.522Z,16.21
2019-05-23T09:10:21.188Z,15.90
2019-05-23T09:12:49.872Z,15.79
2019-05-23T09:15:18.815Z,15.57
2019-05-23T09:17:53.877Z,15.20
2019-05-23T09:20:19.707Z,15.34
2019-05-23T09:22:48.332Z,15.21
2019-05-23T09:25:17.362Z,15.31
2019-05-23T09:27:46.643Z,15.73
2019-05-23T09:30:16.634Z,15.62
2019-05-23T09:32:45.659Z,15.49
2019-05-23T09:35:21.065Z,15.50
2019-05-23T09:37:46.693Z,15.29
2019-05-23T09:40:15.458Z,15.56
2019-05-23T09:42:44.089Z,15.37
2019-05-23T09:45:12.770Z,15.49
2019-05-23T09:47:41.736Z,15.70
2019-05-23T09:50:14.034Z,15.36
2019-05-23T09:52:42.706Z,15.53
2019-05-23T09:55:11.522Z,15.62
2019-05-23T09:57:40.199Z,15.42
2019-05-23T10:00:11.142Z,16.04
2019-05-23T10:02:39.851Z,15.95
2019-05-23T10:05:11.900Z,15.96
2019-05-23T10:07:42.097Z,16.49
2019-05-23T10:10:11.675Z,16.13
2019-05-23T10:12:40.313Z,16.59
2019-05-23T10:15:12.488Z,16.43
2019-05-23T10:17:41.187Z,16.52
2019-05-23T10:20:09.881Z,16.85
2019-05-23T10:22:38.565Z,16.76
2019-05-23T10:25:07.563Z,16.43
2019-05-23T10:27:36.252Z,16.87
2019-05-23T10:30:08.788Z,16.82
2019-05-23T10:32:37.418Z,17.26
2019-05-23T10:35:08.128Z,17.15
2019-05-23T10:37:37.168Z,16.91
2019-05-23T10:40:05.854Z,17.00
2019-05-23T10:42:35.021Z,17.40
2019-05-23T10:45:04.506Z,17.21
2019-05-23T10:47:33.635Z,17.27
2019-05-23T10:50:07.709Z,16.93
2019-05-23T10:52:33.562Z,16.50
2019-05-23T10:55:02.273Z,16.69
2019-05-23T10:57:31.373Z,16.69
2019-05-23T11:00:02.041Z,17.04
2019-05-23T11:02:31.012Z,17.42
2019-05-23T11:05:11.593Z,17.30
2019-05-23T11:07:30.716Z,17.46
2019-05-23T11:09:59.336Z,17.59
2019-05-23T11:12:28.024Z,17.48
2019-05-23T11:14:56.650Z,17.49
2019-05-23T11:17:25.318Z,18.02
2019-05-23T11:19:53.928Z,17.70
2019-05-23T11:22:22.608Z,17.48
2019-05-23T11:24:51.232Z,17.57
2019-05-23T11:27:20.726Z,18.16
2019-05-23T11:29:49.405Z,18.78
2019-05-23T11:32:20.303Z,18.77
2019-05-23T11:34:48.425Z,18.45
2019-05-23T11:37:17.261Z,18.39
2019-05-23T11:39:49.518Z,18.05
2019-05-23T11:42:16.288Z,18.41
2019-05-23T11:44:45.087Z,18.27
2019-05-23T11:47:14.319Z,18.36
2019-05-23T11:49:44.308Z,19.00
2019-05-23T11:52:15.003Z,19.20
2019-05-23T11:54:43.624Z,18.44
2019-05-23T11:57:16.040Z,19.34
2019-05-23T11:59:44.965Z,18.81
2019-05-23T12:02:30.430Z,18.57
2019-05-23T12:05:00.681Z,18.61
2019-05-23T12:07:30.971Z,18.48
2019-05-23T12:09:59.679Z,18.57
2019-05-23T12:12:30.169Z,19.37
2019-05-23T12:14:58.845Z,19.31
2019-05-23T12:17:29.264Z,18.72
2019-05-23T12:19:58.143Z,18.80
2019-05-23T12:22:28.567Z,18.27
2019-05-23T12:24:57.665Z,18.33
2019-05-23T12:27:26.395Z,18.43
2019-05-23T12:29:55.071Z,18.75
2019-05-23T12:32:24.123Z,18.24
2019-05-23T12:35:09.258Z,17.84
2019-05-23T12:37:23.458Z,17.61
2019-05-23T12:39:52.133Z,18.14
2019-05-23T12:42:21.152Z,18.25
2019-05-23T12:44:49.857Z,18.04
2019-05-23T12:47:20.053Z,17.58
2019-05-23T12:49:50.444Z,17.38
2019-05-23T12:52:19.100Z,17.92
2019-05-23T12:54:47.795Z,18.15
2019-05-23T12:57:16.754Z,18.00
2019-05-23T12:59:46.985Z,18.09
2019-05-23T13:02:17.201Z,18.21
2019-05-23T13:04:45.984Z,17.96
2019-05-23T13:07:15.712Z,18.00
2019-05-23T13:09:44.582Z,18.31
2019-05-23T13:12:16.421Z,18.04
2019-05-23T13:14:44.438Z,18.15
2019-05-23T13:17:13.102Z,18.31
2019-05-23T13:19:41.987Z,18.31
2019-05-23T13:22:12.266Z,18.50
2019-05-23T13:24:51.962Z,18.45
2019-05-23T13:27:11.310Z,18.41
2019-05-23T13:29:39.944Z,18.18
2019-05-23T13:32:08.642Z,18.07
2019-05-23T13:34:37.865Z,17.84
2019-05-23T13:37:08.309Z,18.14
2019-05-23T13:39:37.322Z,17.92
2019-05-23T13:42:05.995Z,17.68
2019-05-23T13:44:36.474Z,17.87
2019-05-23T13:47:05.308Z,18.14
2019-05-23T13:49:34.490Z,18.02
2019-05-23T13:52:03.220Z,18.06
2019-05-23T13:54:35.885Z,18.33
2019-05-23T13:57:03.508Z,18.21
2019-05-23T13:59:32.333Z,18.33
2019-05-23T14:02:01.280Z,18.41
2019-05-23T14:04:30.103Z,18.95
2019-05-23T14:06:58.750Z,18.38
2019-05-23T14:09:27.702Z,18.31
2019-05-23T14:12:20.134Z,18.00
2019-05-23T14:14:27.293Z,18.39
2019-05-23T14:17:15.832Z,18.77
2019-05-23T14:19:44.748Z,18.35
2019-05-23T14:22:13.536Z,18.54
2019-05-23T14:24:42.184Z,19.11
2019-05-23T14:27:15.561Z,19.33
2019-05-23T14:29:44.280Z,19.13
2019-05-23T14:32:23.359Z,19.14
2019-05-23T14:34:55.649Z,19.25
2019-05-23T14:37:31.816Z,19.06
2019-05-23T14:40:02.247Z,19.30
2019-05-23T14:42:32.516Z,19.33
2019-05-23T14:45:01.134Z,19.18
2019-05-23T14:47:43.709Z,19.28
2019-05-23T14:50:30.206Z,19.03
2019-05-23T14:53:00.488Z,18.92
2019-05-23T14:55:29.108Z,18.95
2019-05-23T14:57:57.945Z,18.96
2019-05-23T15:00:28.349Z,18.78
2019-05-23T15:02:57.048Z,18.71
2019-05-23T15:05:25.726Z,18.81
2019-05-23T15:07:54.361Z,18.89
2019-05-23T15:10:23.147Z,18.62
2019-05-23T15:12:51.895Z,18.84
2019-05-23T15:15:20.580Z,18.70
2019-05-23T15:17:49.206Z,18.31
2019-05-23T15:20:17.915Z,18.37
2019-05-23T15:22:46.572Z,19.03
2019-05-23T15:25:15.866Z,19.01
2019-05-23T15:27:44.571Z,18.88
2019-05-23T15:30:13.663Z,18.67
2019-05-23T15:32:42.387Z,18.26
2019-05-23T15:35:11.142Z,18.56
2019-05-23T15:37:39.929Z,18.84
2019-05-23T15:40:08.727Z,18.96
2019-05-23T15:42:37.411Z,18.71
2019-05-23T15:45:07.886Z,18.60
2019-05-23T15:47:36.672Z,18.80
2019-05-23T15:50:11.291Z,18.51
2019-05-23T15:52:42.251Z,18.40
2019-05-23T15:55:13.008Z,18.08
2019-05-23T15:57:43.285Z,18.30
2019-05-23T16:00:28.676Z,18.14
2019-05-23T16:03:01.560Z,18.04
2019-05-23T16:05:31.341Z,17.92
2019-05-23T16:08:00.004Z,18.09
2019-05-23T16:10:29.615Z,17.97
2019-05-23T16:12:59.042Z,18.17
2019-05-23T16:15:28.067Z,18.29
2019-05-23T16:17:57.505Z,17.85
2019-05-23T16:20:26.593Z,17.86
2019-05-23T16:22:55.336Z,17.76
2019-05-23T16:25:24.115Z,17.73
2019-05-23T16:27:53.825Z,17.67
2019-05-23T16:30:24.023Z,17.68
2019-05-23T16:32:52.752Z,17.79
2019-05-23T16:35:21.554Z,17.81
2019-05-23T16:37:50.229Z,17.84
2019-05-23T16:40:20.708Z,17.70
2019-05-23T16:42:49.454Z,17.63
2019-05-23T16:45:18.356Z,17.41
2019-05-23T16:47:47.113Z,17.45
2019-05-23T16:50:16.214Z,17.41
2019-05-23T16:52:44.880Z,17.37
2019-05-23T16:55:17.298Z,17.36
2019-05-23T16:57:50.362Z,17.35
2019-05-23T17:00:21.750Z,17.27
2019-05-23T17:02:58.531Z,17.27
2019-05-23T17:05:31.639Z,17.29
2019-05-23T17:08:04.401Z,17.24
2019-05-23T17:10:39.938Z,17.11
2019-05-23T17:13:18.949Z,16.98
2019-05-23T17:15:51.909Z,16.85
2019-05-23T17:18:25.063Z,16.82
2019-05-23T17:20:55.454Z,16.75
2019-05-23T17:23:52.021Z,16.77
2019-05-23T17:26:26.660Z,16.76
2019-05-23T17:28:56.497Z,16.91
2019-05-23T17:31:39.062Z,16.68
2019-05-23T17:34:09.536Z,16.71
2019-05-23T17:36:38.259Z,16.70
2019-05-23T17:39:09.616Z,16.48
2019-05-23T17:41:39.875Z,16.40
2019-05-23T17:44:08.617Z,16.41
2019-05-23T17:46:37.413Z,16.45
2019-05-23T17:49:06.691Z,16.44
2019-05-23T17:51:35.491Z,16.45
2019-05-23T17:54:04.511Z,16.38
2019-05-23T17:56:33.171Z,16.44
2019-05-23T17:59:01.938Z,16.39
2019-05-23T18:01:32.558Z,16.27
2019-05-23T18:04:01.460Z,16.23
2019-05-23T18:06:30.185Z,16.16
2019-05-23T18:08:59.299Z,16.11
2019-05-23T18:11:30.220Z,16.10
2019-05-23T18:13:59.743Z,16.09
2019-05-23T18:16:28.784Z,15.99
2019-05-23T18:18:57.419Z,15.92
2019-05-23T18:21:26.440Z,15.83
2019-05-23T18:23:55.969Z,15.68
2019-05-23T18:26:29.704Z,15.64
2019-05-23T18:28:58.397Z,15.51
2019-05-23T18:31:28.658Z,15.68
2019-05-23T18:33:58.103Z,15.56
2019-05-23T18:36:27.584Z,15.59
2019-05-23T18:38:56.452Z,15.53
2019-05-23T18:41:25.200Z,15.54
2019-05-23T18:43:54.906Z,15.47
2019-05-23T18:46:28.625Z,15.35
2019-05-23T18:48:57.404Z,15.41
2019-05-23T18:51:26.297Z,15.39
2019-05-23T18:53:55.079Z,15.27
2019-05-23T18:56:24.137Z,15.33
2019-05-23T18:58:54.378Z,15.27
2019-05-23T19:01:24.682Z,15.22
2019-05-23T19:03:53.384Z,15.05
2019-05-23T19:06:22.401Z,15.01
2019-05-23T19:08:52.114Z,14.85
2019-05-23T19:11:22.044Z,14.70
2019-05-23T19:13:53.746Z,14.58
2019-05-23T19:16:22.608Z,14.47
2019-05-23T19:18:51.261Z,14.40
2019-05-23T19:21:20.859Z,14.27
2019-05-23T19:23:49.485Z,14.23
2019-05-23T19:26:18.454Z,14.13
2019-05-23T19:28:47.425Z,13.84
2019-05-23T19:31:16.403Z,13.79
2019-05-23T19:33:46.068Z,13.99
2019-05-23T19:36:15.351Z,13.81
2019-05-23T19:38:44.135Z,13.72
2019-05-23T19:41:14.045Z,13.53
2019-05-23T19:43:43.131Z,13.60
2019-05-23T19:46:12.426Z,13.42
2019-05-23T19:48:42.993Z,13.44
2019-05-23T19:51:11.936Z,13.20
2019-05-23T19:53:41.206Z,13.25
2019-05-23T19:56:10.394Z,13.25
2019-05-23T19:58:39.519Z,13.26
2019-05-23T20:01:08.368Z,12.91
2019-05-23T20:03:37.265Z,12.78
2019-05-23T20:06:08.587Z,12.78
2019-05-23T20:08:37.333Z,12.84
2019-05-23T20:11:06.112Z,12.77
2019-05-23T20:13:34.724Z,12.74
2019-05-23T20:16:03.475Z,12.83
2019-05-23T20:18:32.595Z,12.70
2019-05-23T20:21:01.440Z,12.67
2019-05-23T20:23:30.115Z,12.36
2019-05-23T20:25:58.756Z,12.31
2019-05-23T20:28:27.511Z,12.31
2019-05-23T20:30:56.323Z,12.32
2019-05-23T20:33:25.371Z,12.27
2019-05-23T20:35:53.973Z,12.27
2019-05-23T20:38:26.234Z,12.09
2019-05-23T20:40:55.091Z,12.00
2019-05-23T20:43:23.764Z,12.02
2019-05-23T20:45:52.547Z,11.99
2019-05-23T20:48:21.791Z,11.88
2019-05-23T20:50:50.452Z,11.78
2019-05-23T20:53:19.061Z,11.82
2019-05-23T20:55:47.756Z,11.72
2019-05-23T20:58:16.766Z,11.65
2019-05-23T21:00:49.832Z,11.67
2019-05-23T21:03:18.982Z,11.60
2019-05-23T21:05:47.641Z,11.56
2019-05-23T21:08:16.331Z,11.59
2019-05-23T21:10:48.950Z,11.55
2019-05-23T21:13:18.132Z,11.44
2019-05-23T21:15:47.237Z,11.26
2019-05-23T21:18:16.015Z,11.22
2019-05-23T21:20:44.654Z,11.20
2019-05-23T21:23:13.535Z,11.29
2019-05-23T21:25:43.868Z,11.15
2019-05-23T21:28:12.494Z,11.17
2019-05-23T21:30:41.245Z,10.94
2019-05-23T21:33:10.482Z,10.84
2019-05-23T21:35:39.107Z,10.85
2019-05-23T21:38:07.807Z,10.76
2019-05-23T21:40:39.568Z,10.81
2019-05-23T21:43:08.322Z,10.66
2019-05-23T21:45:36.936Z,10.65
2019-05-23T21:48:05.625Z,10.47
2019-05-23T21:50:34.314Z,10.44
2019-05-23T21:53:03.426Z,10.30
2019-05-23T21:55:42.614Z,10.21
2019-05-23T21:58:13.536Z,10.10
2019-05-23T22:01:07.830Z,10.11
2019-05-23T22:03:39.571Z,10.06
2019-05-23T22:06:12.670Z,10.17
2019-05-23T22:08:41.895Z,10.10
2019-05-23T22:11:11.416Z,10.10
2019-05-23T22:13:40.142Z,9.97
2019-05-23T22:16:09.324Z,9.99
2019-05-23T22:18:38.191Z,9.83
2019-05-23T22:21:06.817Z,9.87
2019-05-23T22:23:35.906Z,9.86
2019-05-23T22:26:04.595Z,9.96
2019-05-23T22:28:33.318Z,9.69
2019-05-23T22:31:01.911Z,9.60
2019-05-23T22:33:32.253Z,9.57
2019-05-23T22:36:01.205Z,9.73
2019-05-23T22:38:29.890Z,9.59
2019-05-23T22:40:58.504Z,9.26
2019-05-23T22:43:27.698Z,9.41
2019-05-23T22:45:56.481Z,9.26
2019-05-23T22:48:25.177Z,9.26
2019-05-23T22:50:53.808Z,9.21
2019-05-23T22:53:22.506Z,9.23
2019-05-23T22:55:51.149Z,9.17
2019-05-23T22:58:19.832Z,9.07
2019-05-23T23:00:49.342Z,9.01
2019-05-23T23:03:18.049Z,9.13
2019-05-23T23:05:46.669Z,8.91
2019-05-23T23:08:15.633Z,8.96
2019-05-23T23:10:44.474Z,8.91
2019-05-23T23:13:13.424Z,9.00
2019-05-23T23:15:42.096Z,8.88
2019-05-23T23:18:11.015Z,8.71
2019-05-23T23:20:39.693Z,8.33
2019-05-23T23:23:08.299Z,8.48
2019-05-23T23:25:37.185Z,8.68
2019-05-23T23:28:06.151Z,8.71
2019-05-23T23:30:36.401Z,8.49
2019-05-23T23:33:05.072Z,8.55
2019-05-23T23:35:34.835Z,8.64
2019-05-23T23:38:03.581Z,8.45
2019-05-23T23:40:32.687Z,8.41
2019-05-23T23:43:01.290Z,8.43
2019-05-23T23:45:50.204Z,8.53
2019-05-23T23:48:36.560Z,8.42
2019-05-23T23:51:23.217Z,8.24
2019-05-23T23:54:09.815Z,8.13
2019-05-23T23:56:56.194Z,8.09
2019-05-23T23:59:24.046Z,8.16
